sensor_id;sensor_type;location;lat;lon;timestamp;temperature;humidity
12847;DHT22;6492;48.128;8.320;2022-07-29T03:31:10;13.20;71.60
12847;DHT22;6492;48.128;8.320;2022-07-29T03:44:26;13.00;70.60
12847;DHT22;6492;48.128;8.320;2022-07-29T03:53:17;13.10;70.10
12847;DHT22;6492;48.128;8.320;2022-07-29T03:57:53;13.10;71.30
12847;DHT22;6492;48.128;8.320;2022-07-29T04:36:26;13.70;60.00
12847;DHT22;6492;48.128;8.320;2022-07-29T04:40:28;14.90;62.10
12847;DHT22;6492;48.128;8.320;2022-07-29T04:44:30;14.00;60.50
12847;DHT22;6492;48.128;8.320;2022-07-29T04:48:32;14.20;58.50
12847;DHT22;6492;48.128;8.320;2022-07-29T04:52:36;14.30;58.30
12847;DHT22;6492;48.128;8.320;2022-07-29T04:56:38;14.50;58.10
12847;DHT22;6492;48.128;8.320;2022-07-29T05:00:48;14.60;56.00
12847;DHT22;6492;48.128;8.320;2022-07-29T05:04:50;14.80;55.30
12847;DHT22;6492;48.128;8.320;2022-07-29T05:17:28;15.40;50.10
12847;DHT22;6492;48.128;8.320;2022-07-29T06:24:17;18.20;25.70
12847;DHT22;6492;48.128;8.320;2022-07-29T06:28:19;18.30;25.40
12847;DHT22;6492;48.128;8.320;2022-07-29T06:32:23;18.50;25.00
12847;DHT22;6492;48.128;8.320;2022-07-29T06:36:25;18.50;25.40
12847;DHT22;6492;48.128;8.320;2022-07-29T06:40:28;18.70;26.10
12847;DHT22;6492;48.128;8.320;2022-07-29T06:45:03;18.50;26.60
12847;DHT22;6492;48.128;8.320;2022-07-29T06:49:39;18.40;26.60
12847;DHT22;6492;48.128;8.320;2022-07-29T06:53:51;18.60;25.50
12847;DHT22;6492;48.128;8.320;2022-07-29T06:57:56;18.70;23.40
12847;DHT22;6492;48.128;8.320;2022-07-29T07:01:58;18.90;24.40
12847;DHT22;6492;48.128;8.320;2022-07-29T07:06:00;19.40;21.80
12847;DHT22;6492;48.128;8.320;2022-07-29T07:10:02;19.80;20.80
12847;DHT22;6492;48.128;8.320;2022-07-29T07:14:05;20.20;19.90
12847;DHT22;6492;48.128;8.320;2022-07-29T07:18:07;20.70;17.50
12847;DHT22;6492;48.128;8.320;2022-07-29T07:22:09;21.00;15.30
12847;DHT22;6492;48.128;8.320;2022-07-29T07:26:10;21.80;12.60
12847;DHT22;6492;48.128;8.320;2022-07-29T07:30:14;23.00;10.00
12847;DHT22;6492;48.128;8.320;2022-07-29T07:34:16;24.80;5.20
12847;DHT22;6492;48.128;8.320;2022-07-29T07:38:18;26.00;1.90
12847;DHT22;6492;48.128;8.320;2022-07-29T07:42:22;26.80;1.00
12847;DHT22;6492;48.128;8.320;2022-07-29T07:46:26;27.80;1.00
12847;DHT22;6492;48.128;8.320;2022-07-29T07:50:28;27.00;1.00
12847;DHT22;6492;48.128;8.320;2022-07-29T07:54:31;25.60;1.00
12847;DHT22;6492;48.128;8.320;2022-07-29T07:58:33;24.60;1.00
12847;DHT22;6492;48.128;8.320;2022-07-29T08:02:38;24.10;2.60
12847;DHT22;6492;48.128;8.320;2022-07-29T08:06:40;23.90;1.50
12847;DHT22;6492;48.128;8.320;2022-07-29T08:10:44;23.90;1.90
12847;DHT22;6492;48.128;8.320;2022-07-29T08:15:00;24.00;1.80
12847;DHT22;6492;48.128;8.320;2022-07-29T08:19:04;24.10;1.70
12847;DHT22;6492;48.128;8.320;2022-07-29T08:23:07;24.00;2.60
12847;DHT22;6492;48.128;8.320;2022-07-29T08:27:16;24.10;1.70
12847;DHT22;6492;48.128;8.320;2022-07-29T08:31:18;24.20;2.40
12847;DHT22;6492;48.128;8.320;2022-07-29T08:35:23;24.20;2.40
12847;DHT22;6492;48.128;8.320;2022-07-29T08:39:25;24.00;1.10
12847;DHT22;6492;48.128;8.320;2022-07-29T08:43:28;23.80;2.30
12847;DHT22;6492;48.128;8.320;2022-07-29T08:47:30;23.90;3.70
12847;DHT22;6492;48.128;8.320;2022-07-29T08:51:34;23.90;1.10
12847;DHT22;6492;48.128;8.320;2022-07-29T08:55:42;23.90;2.50
12847;DHT22;6492;48.128;8.320;2022-07-29T08:59:46;23.90;2.00
12847;DHT22;6492;48.128;8.320;2022-07-29T09:03:55;23.90;1.60
12847;DHT22;6492;48.128;8.320;2022-07-29T09:07:58;24.30;2.50
12847;DHT22;6492;48.128;8.320;2022-07-29T09:12:01;24.70;1.00
12847;DHT22;6492;48.128;8.320;2022-07-29T09:16:04;25.20;1.00
12847;DHT22;6492;48.128;8.320;2022-07-29T09:20:09;25.20;1.00
12847;DHT22;6492;48.128;8.320;2022-07-29T09:24:23;25.00;1.00
12847;DHT22;6492;48.128;8.320;2022-07-29T09:28:25;24.60;1.00
12847;DHT22;6492;48.128;8.320;2022-07-29T09:32:27;24.00;1.00
12847;DHT22;6492;48.128;8.320;2022-07-29T09:36:38;23.70;1.50
12847;DHT22;6492;48.128;8.320;2022-07-29T09:40:56;23.50;2.60
12847;DHT22;6492;48.128;8.320;2022-07-29T09:44:58;23.50;3.20
12847;DHT22;6492;48.128;8.320;2022-07-29T09:49:19;23.40;2.10
12847;DHT22;6492;48.128;8.320;2022-07-29T09:53:30;23.50;2.80
12847;DHT22;6492;48.128;8.320;2022-07-29T09:57:35;23.60;2.90
12847;DHT22;6492;48.128;8.320;2022-07-29T10:01:37;24.10;3.00
12847;DHT22;6492;48.128;8.320;2022-07-29T10:05:38;24.60;1.90
12847;DHT22;6492;48.128;8.320;2022-07-29T10:09:50;25.10;1.00
12847;DHT22;6492;48.128;8.320;2022-07-29T10:13:55;25.30;1.00
12847;DHT22;6492;48.128;8.320;2022-07-29T10:17:57;25.50;1.00
12847;DHT22;6492;48.128;8.320;2022-07-29T10:22:00;25.60;1.00
12847;DHT22;6492;48.128;8.320;2022-07-29T10:26:12;25.60;1.00
12847;DHT22;6492;48.128;8.320;2022-07-29T10:30:16;25.40;1.00
12847;DHT22;6492;48.128;8.320;2022-07-29T10:34:26;25.50;1.00
12847;DHT22;6492;48.128;8.320;2022-07-29T10:38:47;25.90;1.00
12847;DHT22;6492;48.128;8.320;2022-07-29T10:42:52;25.70;1.00
12847;DHT22;6492;48.128;8.320;2022-07-29T10:47:25;25.80;1.00
12847;DHT22;6492;48.128;8.320;2022-07-29T10:51:51;25.80;1.00
12847;DHT22;6492;48.128;8.320;2022-07-29T10:55:59;25.80;1.00
12847;DHT22;6492;48.128;8.320;2022-07-29T11:00:36;25.70;1.00
12847;DHT22;6492;48.128;8.320;2022-07-29T11:05:01;25.70;1.00
12847;DHT22;6492;48.128;8.320;2022-07-29T11:09:16;25.60;1.00
12847;DHT22;6492;48.128;8.320;2022-07-29T11:13:47;25.60;1.00
12847;DHT22;6492;48.128;8.320;2022-07-29T11:18:07;25.80;1.00
12847;DHT22;6492;48.128;8.320;2022-07-29T11:22:11;26.30;1.00
12847;DHT22;6492;48.128;8.320;2022-07-29T11:26:14;26.60;1.00
12847;DHT22;6492;48.128;8.320;2022-07-29T11:30:48;26.60;1.00
12847;DHT22;6492;48.128;8.320;2022-07-29T11:35:15;26.50;1.00
12847;DHT22;6492;48.128;8.320;2022-07-29T11:39:28;26.60;1.00
12847;DHT22;6492;48.128;8.320;2022-07-29T11:43:48;26.50;1.00
12847;DHT22;6492;48.128;8.320;2022-07-29T11:47:54;26.50;1.00
12847;DHT22;6492;48.128;8.320;2022-07-29T11:51:58;26.40;1.00
12847;DHT22;6492;48.128;8.320;2022-07-29T11:56:04;26.10;1.00
12847;DHT22;6492;48.128;8.320;2022-07-29T12:00:10;26.00;1.00
12847;DHT22;6492;48.128;8.320;2022-07-29T12:04:12;25.90;1.00
12847;DHT22;6492;48.128;8.320;2022-07-29T12:08:16;25.80;1.00
12847;DHT22;6492;48.128;8.320;2022-07-29T12:12:21;25.60;1.00
12847;DHT22;6492;48.128;8.320;2022-07-29T12:16:34;25.60;1.00
12847;DHT22;6492;48.128;8.320;2022-07-29T12:20:36;25.70;1.00
12847;DHT22;6492;48.128;8.320;2022-07-29T12:24:43;25.50;1.00
12847;DHT22;6492;48.128;8.320;2022-07-29T12:29:03;25.10;1.00
12847;DHT22;6492;48.128;8.320;2022-07-29T12:33:15;24.80;1.00
12847;DHT22;6492;48.128;8.320;2022-07-29T12:37:17;24.80;1.00
12847;DHT22;6492;48.128;8.320;2022-07-29T12:41:19;24.80;1.00
12847;DHT22;6492;48.128;8.320;2022-07-29T12:45:30;24.60;1.00
12847;DHT22;6492;48.128;8.320;2022-07-29T12:49:32;24.30;1.00
12847;DHT22;6492;48.128;8.320;2022-07-29T12:53:34;23.90;1.00
12847;DHT22;6492;48.128;8.320;2022-07-29T12:57:44;23.70;1.00
12847;DHT22;6492;48.128;8.320;2022-07-29T13:01:49;23.70;1.00
12847;DHT22;6492;48.128;8.320;2022-07-29T13:05:51;23.70;1.00
12847;DHT22;6492;48.128;8.320;2022-07-29T13:09:53;23.60;1.00
12847;DHT22;6492;48.128;8.320;2022-07-29T13:13:55;23.60;1.00
12847;DHT22;6492;48.128;8.320;2022-07-29T13:17:59;23.40;1.00
12847;DHT22;6492;48.128;8.320;2022-07-29T13:22:00;23.20;1.00
12847;DHT22;6492;48.128;8.320;2022-07-29T13:26:05;22.90;1.00
12847;DHT22;6492;48.128;8.320;2022-07-29T13:30:09;22.70;1.00
12847;DHT22;6492;48.128;8.320;2022-07-29T13:34:12;22.60;1.00
12847;DHT22;6492;48.128;8.320;2022-07-29T13:38:14;22.50;1.00
12847;DHT22;6492;48.128;8.320;2022-07-29T13:42:16;22.60;1.00
12847;DHT22;6492;48.128;8.320;2022-07-29T13:46:18;22.60;1.00
12847;DHT22;6492;48.128;8.320;2022-07-29T13:50:22;22.80;1.00
12847;DHT22;6492;48.128;8.320;2022-07-29T13:54:23;22.70;1.00
12847;DHT22;6492;48.128;8.320;2022-07-29T13:58:25;22.70;1.00
12847;DHT22;6492;48.128;8.320;2022-07-29T14:02:27;22.70;1.20
12847;DHT22;6492;48.128;8.320;2022-07-29T14:06:30;22.80;1.00
12847;DHT22;6492;48.128;8.320;2022-07-29T14:10:32;22.80;1.00
12847;DHT22;6492;48.128;8.320;2022-07-29T14:14:34;22.70;1.00
12847;DHT22;6492;48.128;8.320;2022-07-29T14:18:36;22.70;1.00
12847;DHT22;6492;48.128;8.320;2022-07-29T14:22:40;22.90;1.00
12847;DHT22;6492;48.128;8.320;2022-07-29T14:27:11;22.90;1.00
12847;DHT22;6492;48.128;8.320;2022-07-29T14:31:16;23.00;1.00
12847;DHT22;6492;48.128;8.320;2022-07-29T14:35:28;22.80;1.00
12847;DHT22;6492;48.128;8.320;2022-07-29T14:39:38;22.70;1.00
12847;DHT22;6492;48.128;8.320;2022-07-29T14:43:40;22.70;1.00
12847;DHT22;6492;48.128;8.320;2022-07-29T14:47:42;22.70;1.20
12847;DHT22;6492;48.128;8.320;2022-07-29T14:51:44;22.70;1.10
12847;DHT22;6492;48.128;8.320;2022-07-29T14:55:47;22.70;1.20
12847;DHT22;6492;48.128;8.320;2022-07-29T14:59:49;22.90;1.00
12847;DHT22;6492;48.128;8.320;2022-07-29T15:03:51;22.90;1.10
12847;DHT22;6492;48.128;8.320;2022-07-29T15:07:53;22.80;2.10
12847;DHT22;6492;48.128;8.320;2022-07-29T15:11:56;22.90;2.00
12847;DHT22;6492;48.128;8.320;2022-07-29T15:16:07;22.90;2.00
12847;DHT22;6492;48.128;8.320;2022-07-29T15:20:10;22.70;2.90
12847;DHT22;6492;48.128;8.320;2022-07-29T15:24:12;22.40;3.10
12847;DHT22;6492;48.128;8.320;2022-07-29T15:28:15;22.20;4.10
12847;DHT22;6492;48.128;8.320;2022-07-29T15:32:17;22.20;5.00
12847;DHT22;6492;48.128;8.320;2022-07-29T15:36:19;22.10;4.10
12847;DHT22;6492;48.128;8.320;2022-07-29T15:40:22;22.20;4.50
12847;DHT22;6492;48.128;8.320;2022-07-29T15:44:26;22.30;4.00
12847;DHT22;6492;48.128;8.320;2022-07-29T15:48:28;22.40;3.50
12847;DHT22;6492;48.128;8.320;2022-07-29T15:52:29;22.40;3.00
12847;DHT22;6492;48.128;8.320;2022-07-29T15:56:31;22.30;2.20
12847;DHT22;6492;48.128;8.320;2022-07-29T16:00:35;22.30;2.50
12847;DHT22;6492;48.128;8.320;2022-07-29T16:04:36;22.40;2.40
12847;DHT22;6492;48.128;8.320;2022-07-29T16:08:38;22.50;1.70
12847;DHT22;6492;48.128;8.320;2022-07-29T16:12:40;22.50;1.60
12847;DHT22;6492;48.128;8.320;2022-07-29T16:16:43;22.60;1.60
12847;DHT22;6492;48.128;8.320;2022-07-29T16:20:45;22.70;1.00
12847;DHT22;6492;48.128;8.320;2022-07-29T16:24:47;22.70;1.00
12847;DHT22;6492;48.128;8.320;2022-07-29T16:28:49;22.60;1.00
12847;DHT22;6492;48.128;8.320;2022-07-29T16:32:52;22.50;1.50
12847;DHT22;6492;48.128;8.320;2022-07-29T16:36:54;22.40;1.60
12847;DHT22;6492;48.128;8.320;2022-07-29T16:40:56;22.50;1.30
12847;DHT22;6492;48.128;8.320;2022-07-29T16:44:58;22.50;1.00
12847;DHT22;6492;48.128;8.320;2022-07-29T16:49:01;22.40;1.60
12847;DHT22;6492;48.128;8.320;2022-07-29T16:53:03;22.70;1.00
12847;DHT22;6492;48.128;8.320;2022-07-29T16:57:05;23.00;1.00
12847;DHT22;6492;48.128;8.320;2022-07-29T17:01:07;23.20;1.00
12847;DHT22;6492;48.128;8.320;2022-07-29T17:05:12;23.30;1.00
12847;DHT22;6492;48.128;8.320;2022-07-29T17:09:20;23.30;1.00
12847;DHT22;6492;48.128;8.320;2022-07-29T17:13:38;23.60;1.00
12847;DHT22;6492;48.128;8.320;2022-07-29T17:17:44;23.80;1.00
12847;DHT22;6492;48.128;8.320;2022-07-29T17:21:48;24.10;1.00
12847;DHT22;6492;48.128;8.320;2022-07-29T17:25:50;24.50;1.00
12847;DHT22;6492;48.128;8.320;2022-07-29T17:29:52;24.90;1.00
12847;DHT22;6492;48.128;8.320;2022-07-29T17:33:53;25.10;1.00
12847;DHT22;6492;48.128;8.320;2022-07-29T17:37:57;25.10;1.00
12847;DHT22;6492;48.128;8.320;2022-07-29T17:42:06;24.90;1.00
12847;DHT22;6492;48.128;8.320;2022-07-29T17:46:08;24.80;1.00
12847;DHT22;6492;48.128;8.320;2022-07-29T17:50:32;24.30;1.00
12847;DHT22;6492;48.128;8.320;2022-07-29T17:54:42;23.80;1.00
12847;DHT22;6492;48.128;8.320;2022-07-29T17:58:44;23.30;1.00
12847;DHT22;6492;48.128;8.320;2022-07-29T18:02:48;22.70;1.00
12847;DHT22;6492;48.128;8.320;2022-07-29T18:06:50;22.10;1.00
12847;DHT22;6492;48.128;8.320;2022-07-29T18:10:53;21.60;1.00
12847;DHT22;6492;48.128;8.320;2022-07-29T18:15:02;21.30;1.00
12847;DHT22;6492;48.128;8.320;2022-07-29T18:24:02;20.80;1.00
12847;DHT22;6492;48.128;8.320;2022-07-29T18:28:06;20.60;1.00
12847;DHT22;6492;48.128;8.320;2022-07-29T19:25:13;17.20;9.80
